Time;durP1;ratioP1;P1;durP2;ratioP2;P2;SDS_P1;SDS_P2;PMS_P1;PMS_P2;Temp;Humidity;BMP_temperature;BMP_pressure;BME280_temperature;BME280_humidity;BME280_pressure;Samples;Min_cycle;Max_cycle;Signal;HPM_P1;HPM_P2
2024/04/14 00:00:12;;;;;;;;;19.00;18.00;;;;;13.90;87.57;100144.81;6273361;20;2834705;-41
2024/04/14 00:02:40;;;;;;;;;16.00;16.00;;;;;14.21;86.40;100147.16;6273277;20;3558743;-42
2024/04/14 00:05:07;;;;;;;;;12.33;11.00;;;;;14.12;87.75;100142.41;6273268;20;3512886;-44
2024/04/14 00:07:34;;;;;;;;;14.00;14.00;;;;;14.20;86.19;100148.13;6309793;20;2491954;-44
2024/04/14 00:10:02;;;;;;;;;17.00;15.50;;;;;14.23;85.61;100144.34;6271136;20;2825348;-41
2024/04/14 00:12:29;;;;;;;;;19.50;19.00;;;;;14.39;84.25;100141.44;6274209;20;2829403;-43
2024/04/14 00:14:57;;;;;;;;;17.00;16.00;;;;;14.06;86.27;100145.53;6272904;20;2824347;-42
2024/04/14 00:17:24;;;;;;;;;20.00;17.00;;;;;13.93;87.99;100145.50;6272977;20;2839851;-41
2024/04/14 00:19:52;;;;;;;;;16.00;16.00;;;;;13.97;87.86;100143.44;6269227;20;2824335;-40
2024/04/14 00:22:20;;;;;;;;;18.00;18.00;;;;;14.05;86.91;100143.78;6277769;20;2826361;-40
2024/04/14 00:24:47;;;;;;;;;20.00;18.67;;;;;13.97;88.30;100143.44;6276471;20;3576325;-43
2024/04/14 00:27:15;;;;;;;;;20.50;17.50;;;;;13.46;91.27;100124.41;6277579;20;2823212;-42
2024/04/14 00:29:42;;;;;;;;;15.33;13.00;;;;;13.48;92.88;100135.94;6274574;20;3523228;-43
2024/04/14 00:32:09;;;;;;;;;19.00;16.00;;;;;14.09;89.18;100133.66;6272404;20;2496102;-42
2024/04/14 00:34:36;;;;;;;;;17.50;17.00;;;;;13.52;92.54;100129.38;6278079;20;2826373;-40
2024/04/14 00:37:05;;;;;;;;;29.50;24.00;;;;;13.68;91.75;100124.69;6277170;20;2858735;-43
2024/04/14 00:39:33;;;;;;;;;46.00;37.67;;;;;13.71;92.29;100124.47;6273949;20;2854612;-40
2024/04/14 00:42:00;;;;;;;;;53.00;41.33;;;;;13.65;92.27;100119.50;6310521;20;3618003;-40
2024/04/14 00:44:29;;;;;;;;;38.00;27.25;;;;;13.87;90.99;100113.50;6277224;20;3617025;-41
2024/04/14 00:46:57;;;;;;;;;29.67;25.33;;;;;13.70;92.19;100116.50;6309539;20;3613871;-40
2024/04/14 00:49:26;;;;;;;;;21.50;20.50;;;;;13.77;91.74;100113.28;6274025;20;2836742;-40
2024/04/14 00:51:54;;;;;;;;;18.00;17.00;;;;;13.34;94.44;100108.06;6275465;20;2832580;-43
2024/04/14 00:54:22;;;;;;;;;18.00;18.00;;;;;13.28;95.35;100113.00;6275694;20;2832613;-42
2024/04/14 00:56:50;;;;;;;;;14.67;12.00;;;;;13.17;96.78;100108.28;6278296;20;3533896;-44
2024/04/14 00:59:17;;;;;;;;;20.50;18.50;;;;;13.32;96.26;100112.72;6304009;20;2487767;-40
2024/04/14 01:01:45;;;;;;;;;17.00;17.00;;;;;13.22;96.28;100106.16;6277005;20;2831620;-40
2024/04/14 01:04:12;;;;;;;;;17.00;17.00;;;;;13.19;96.68;100106.34;6273237;20;2500421;-40
2024/04/14 01:06:39;;;;;;;;;21.00;18.00;;;;;13.18;96.96;100104.63;6274834;20;2489850;-41
2024/04/14 01:09:08;;;;;;;;;18.00;18.00;;;;;13.05;98.41;100099.16;6274802;20;3572212;-44
2024/04/14 01:11:36;;;;;;;;;24.00;20.50;;;;;12.98;99.07;100103.25;6274532;20;2850274;-40
2024/04/14 01:14:07;;;;;;;;;21.00;21.00;;;;;13.15;98.32;100091.34;6275880;20;2839906;-42
2024/04/14 01:16:39;;;;;;;;;22.50;21.00;;;;;13.46;97.24;100095.59;6276203;20;2844119;-40
2024/04/14 01:19:07;;;;;;;;;29.33;29.00;;;;;13.14;97.25;100097.72;6274927;20;2850513;-40
2024/04/14 01:21:35;;;;;;;;;21.33;21.33;;;;;13.21;98.40;100098.16;6307249;20;3578407;-41
2024/04/14 01:24:02;;;;;;;;;18.00;18.00;;;;;13.03;99.57;100089.44;6305419;20;2496277;-40
2024/04/14 01:26:29;;;;;;;;;17.00;17.00;;;;;13.46;95.68;100092.91;6274355;20;2823321;-40
2024/04/14 01:28:56;;;;;;;;;19.50;19.50;;;;;13.19;98.29;100087.47;6272717;20;2827355;-41
2024/04/14 01:31:23;;;;;;;;;19.50;18.50;;;;;12.91;100.00;100094.66;6271894;20;2500252;-40
2024/04/14 01:33:51;;;;;;;;;20.00;18.00;;;;;12.73;100.00;100090.47;6274998;20;2839857;-40
2024/04/14 01:36:18;;;;;;;;;21.00;19.00;;;;;12.60;100.00;100081.44;6274544;20;2829415;-45
2024/04/14 01:38:46;;;;;;;;;19.00;19.00;;;;;12.66;100.00;100081.03;6273778;20;2838830;-41
2024/04/14 01:41:13;;;;;;;;;21.50;18.50;;;;;12.80;100.00;100077.47;6275589;20;2830589;-41
2024/04/14 01:43:42;;;;;;;;;30.00;28.00;;;;;12.52;100.00;100085.47;6275054;20;2858759;-41
2024/04/14 01:46:09;;;;;;;;;31.00;28.00;;;;;12.24;100.00;100080.09;6303530;20;3601384;-42
2024/04/14 01:48:38;;;;;;;;;39.00;31.67;;;;;12.45;100.00;100078.78;6270427;20;3619100;-41
2024/04/14 01:51:05;;;;;;;;;29.33;29.33;;;;;12.55;100.00;100079.03;6304274;20;3585782;-40
2024/04/14 01:53:32;;;;;;;;;30.33;29.33;;;;;12.58;100.00;100077.97;6274824;20;3582699;-40
2024/04/14 01:56:00;;;;;;;;;28.33;28.00;;;;;12.40;100.00;100069.22;6274976;20;3606648;-41
2024/04/14 01:58:27;;;;;;;;;26.00;26.00;;;;;12.49;100.00;100074.91;6277128;20;3606498;-40
2024/04/14 02:00:55;;;;;;;;;25.00;22.00;;;;;12.63;100.00;100070.47;6270685;20;2841019;-42
2024/04/14 02:03:22;;;;;;;;;25.00;21.50;;;;;12.77;100.00;100081.22;6273739;20;2836803;-43
2024/04/14 02:06:00;;;;;;;;;21.00;21.00;;;;;12.43;100.00;100078.00;6273611;20;2830722;-43
2024/04/14 02:08:28;;;;;;;;;24.00;21.00;;;;;12.27;100.00;100088.00;6276313;20;3579455;-44
2024/04/14 02:10:56;;;;;;;;;18.00;18.00;;;;;12.11;100.00;100076.41;6272076;20;2823204;-44
2024/04/14 02:13:23;;;;;;;;;21.50;21.50;;;;;12.24;100.00;100077.41;6273104;20;2838910;-41
2024/04/14 02:15:51;;;;;;;;;23.00;21.33;;;;;11.92;100.00;100064.09;6275374;20;2846223;-40
2024/04/14 02:18:20;;;;;;;;;24.67;23.33;;;;;12.00;100.00;100064.50;6304794;20;2857108;-44
2024/04/14 02:20:48;;;;;;;;;23.67;23.67;;;;;12.05;100.00;100065.06;6306344;20;2850428;-43
2024/04/14 02:23:15;;;;;;;;;25.33;22.33;;;;;12.04;100.00;100057.97;6309718;20;3595173;-44
2024/04/14 02:25:54;;;;;;;;;26.67;25.33;;;;;12.17;100.00;100063.47;6273646;20;2854701;-41
2024/04/14 02:28:22;;;;;;;;;25.67;23.67;;;;;12.35;100.00;100061.47;6306235;20;3587828;-39
2024/04/14 02:30:49;;;;;;;;;21.50;21.50;;;;;12.62;100.00;100057.97;6275254;20;2653465;-40
2024/04/14 02:33:18;;;;;;;;;25.00;25.00;;;;;11.97;100.00;100059.31;6271539;20;2858781;-43
2024/04/14 02:36:03;;;;;;;;;30.00;25.33;;;;;11.86;100.00;100059.09;6301959;20;3610670;-44
2024/04/14 02:38:31;;;;;;;;;27.67;27.67;;;;;11.90;100.00;100060.66;6305817;20;3607619;-39
2024/04/14 02:41:01;;;;;;;;;25.00;24.33;;;;;11.87;100.00;100063.50;6274843;20;3592005;-44
2024/04/14 02:43:33;;;;;;;;;24.33;23.00;;;;;12.07;100.00;100067.69;6271588;20;2853364;-40
2024/04/14 02:46:01;;;;;;;;;28.33;24.00;;;;;12.07;100.00;100060.47;6305546;20;3597247;-41
2024/04/14 02:48:28;;;;;;;;;17.67;17.67;;;;;12.12;100.00;100072.78;6272958;20;3564833;-40
2024/04/14 02:50:56;;;;;;;;;28.33;27.00;;;;;11.93;100.00;100065.84;6306401;20;3600354;-42
2024/04/14 02:53:29;;;;;;;;;34.00;24.67;;;;;11.95;100.00;100058.53;6273496;20;2881673;-43
2024/04/14 02:55:56;;;;;;;;;35.33;24.00;;;;;11.98;100.00;100055.66;6307864;20;3618997;-40
2024/04/14 02:58:25;;;;;;;;;28.33;23.33;;;;;11.86;100.00;100053.72;6272612;20;3598184;-40
2024/04/14 03:01:01;;;;;;;;;51.00;29.67;;;;;11.60;100.00;100052.56;6304091;20;3625494;-40
2024/04/14 03:03:29;;;;;;;;;25.00;22.67;;;;;11.48;100.00;100043.44;6308046;20;3589808;-40
2024/04/14 03:06:05;;;;;;;;;29.00;27.00;;;;;11.56;100.00;100046.53;6274417;20;3594015;-39
2024/04/14 03:08:33;;;;;;;;;21.00;19.50;;;;;12.04;100.00;100044.50;6272071;20;2830525;-40
2024/04/14 03:11:00;;;;;;;;;24.33;24.33;;;;;11.84;100.00;100045.69;6275933;20;3584651;-39
2024/04/14 03:13:29;;;;;;;;;30.50;24.50;;;;;11.75;100.00;100034.66;6266854;20;2853020;-39
2024/04/14 03:15:56;;;;;;;;;24.00;22.00;;;;;11.58;100.00;100041.03;6274263;20;3586789;-40
2024/04/14 03:18:23;;;;;;;;;25.00;22.67;;;;;11.93;100.00;100033.56;6272855;20;3584760;-40
2024/04/14 03:21:01;;;;;;;;;24.33;24.33;;;;;11.54;100.00;100037.66;6270887;20;3590997;-40
2024/04/14 03:23:29;;;;;;;;;25.00;25.00;;;;;11.46;100.00;100039.97;6305633;20;3589876;-41
2024/04/14 03:25:58;;;;;;;;;22.67;21.67;;;;;11.29;100.00;100040.06;6272110;20;2847171;-41
2024/04/14 03:28:27;;;;;;;;;22.67;22.67;;;;;11.30;100.00;100033.75;6303002;20;2850305;-40
2024/04/14 03:31:01;;;;;;;;;25.67;24.00;;;;;11.40;100.00;100041.19;6299792;20;2847145;-41
2024/04/14 03:33:29;;;;;;;;;25.00;25.00;;;;;11.38;100.00;100031.47;6303026;20;3595149;-40
2024/04/14 03:36:01;;;;;;;;;30.00;23.33;;;;;11.38;100.00;100034.16;6273122;20;3621077;-42
2024/04/14 03:38:30;;;;;;;;;22.67;22.67;;;;;11.39;100.00;100027.81;6301385;20;2850245;-40
2024/04/14 03:40:58;;;;;;;;;23.33;21.33;;;;;11.55;100.00;100035.84;6305276;20;3584732;-40
2024/04/14 03:43:26;;;;;;;;;25.00;22.00;;;;;11.54;100.00;100031.44;6270346;20;2837941;-40
2024/04/14 03:45:53;;;;;;;;;25.00;23.33;;;;;11.39;100.00;100033.19;6274362;20;3591989;-39
2024/04/14 03:48:21;;;;;;;;;26.00;20.67;;;;;11.52;100.00;100033.34;6272310;20;3594382;-40
2024/04/14 03:50:49;;;;;;;;;22.33;22.33;;;;;11.69;100.00;100035.88;6272255;20;2843999;-40
2024/04/14 03:53:16;;;;;;;;;25.00;25.00;;;;;11.54;100.00;100031.44;6299836;20;3596098;-41
2024/04/14 03:55:44;;;;;;;;;25.67;23.67;;;;;11.24;100.00;100023.34;6271292;20;3587917;-42
2024/04/14 03:58:12;;;;;;;;;25.33;23.67;;;;;11.23;100.00;100027.00;6271353;20;3594161;-40
2024/04/14 04:00:40;;;;;;;;;25.33;25.33;;;;;10.93;100.00;100026.03;6268967;20;2858650;-42
2024/04/14 04:03:09;;;;;;;;;24.00;21.33;;;;;10.89;100.00;100018.22;6306306;20;3582773;-42
2024/04/14 04:05:36;;;;;;;;;19.00;19.00;;;;;10.84;100.00;100022.97;6270126;20;2848288;-40
2024/04/14 04:08:04;;;;;;;;;20.50;20.00;;;;;10.84;100.00;100020.28;6273407;20;2847228;-39
2024/04/14 04:10:33;;;;;;;;;27.67;23.33;;;;;10.85;100.00;100020.22;6271200;20;2854513;-40
2024/04/14 04:13:00;;;;;;;;;27.33;24.33;;;;;10.70;100.00;100021.97;6305614;20;3591916;-38
2024/04/14 04:15:28;;;;;;;;;27.00;24.67;;;;;10.82;100.00;100016.81;6270477;20;2851323;-39
2024/04/14 04:17:56;;;;;;;;;23.50;23.00;;;;;10.93;100.00;100025.16;6303269;20;2851438;-38
2024/04/14 04:20:23;;;;;;;;;22.50;22.50;;;;;10.96;100.00;100024.97;6272389;20;2845294;-38
2024/04/14 04:22:51;;;;;;;;;23.00;22.50;;;;;10.69;100.00;100028.28;6270664;20;2839963;-38
2024/04/14 04:25:19;;;;;;;;;29.67;25.67;;;;;11.05;100.00;100035.19;6269359;20;2845064;-38
2024/04/14 04:27:47;;;;;;;;;26.67;23.67;;;;;11.29;100.00;100038.25;6303420;20;3589904;-38
2024/04/14 04:30:15;;;;;;;;;19.00;19.00;;;;;11.54;100.00;100047.56;6268717;20;2832598;-38
2024/04/14 04:32:42;;;;;;;;;24.00;22.50;;;;;11.41;100.00;100047.44;6270302;20;2854525;-38
2024/04/14 04:35:10;;;;;;;;;23.67;21.67;;;;;11.56;100.00;100041.13;6271692;20;3578401;-38
2024/04/14 04:37:38;;;;;;;;;22.67;22.67;;;;;11.58;100.00;100043.72;6300831;20;3591997;-39
2024/04/14 04:40:06;;;;;;;;;25.00;23.33;;;;;11.58;100.00;100043.72;6304765;20;3580557;-38
2024/04/14 04:42:34;;;;;;;;;23.00;21.00;;;;;11.49;100.00;100038.91;6268004;20;2728447;-39
2024/04/14 04:45:02;;;;;;;;;27.33;24.33;;;;;11.66;100.00;100041.44;6299145;20;2847245;-39
2024/04/14 04:47:29;;;;;;;;;21.00;21.00;;;;;12.12;100.00;100035.97;6302640;20;3578575;-39
2024/04/14 04:49:57;;;;;;;;;22.50;21.00;;;;;12.44;100.00;100039.31;6268607;20;2844119;-39
2024/04/14 04:52:24;;;;;;;;;26.33;25.67;;;;;12.98;100.00;100040.34;6273027;20;3588823;-39
2024/04/14 04:54:53;;;;;;;;;26.67;24.00;;;;;12.99;100.00;100042.09;6270760;20;2845227;-40
2024/04/14 04:57:20;;;;;;;;;26.33;26.33;;;;;12.82;100.00;100043.19;6303409;20;3589855;-39
2024/04/14 04:59:48;;;;;;;;;26.67;25.00;;;;;12.90;100.00;100039.06;6269702;20;3591938;-39
2024/04/14 05:02:16;;;;;;;;;25.33;23.67;;;;;12.70;100.00;100044.88;6269171;20;3600328;-39
2024/04/14 05:04:43;;;;;;;;;25.67;25.67;;;;;12.51;100.00;100037.09;6300661;20;3603442;-40
2024/04/14 05:07:12;;;;;;;;;26.00;24.33;;;;;13.17;100.00;100036.34;6271355;20;3602496;-39
2024/04/14 05:09:39;;;;;;;;;24.00;24.00;;;;;13.59;99.28;100039.84;6307608;20;3596052;-39
2024/04/14 05:12:07;;;;;;;;;24.33;23.00;;;;;13.58;96.71;100034.53;6279072;20;3585676;-37
2024/04/14 05:14:36;;;;;;;;;24.00;22.67;;;;;13.49;97.66;100038.75;6274514;20;2849455;-37
2024/04/14 05:17:03;;;;;;;;;23.00;22.00;;;;;13.15;100.00;100034.72;6305097;20;2847191;-37
2024/04/14 05:19:32;;;;;;;;;23.00;23.00;;;;;13.49;100.00;100032.47;6271246;20;2852560;-37
2024/04/14 05:21:59;;;;;;;;;23.67;22.33;;;;;13.91;97.17;100038.59;6309348;20;3581468;-40
2024/04/14 05:24:27;;;;;;;;;25.33;22.33;;;;;14.03;99.04;100041.31;6275321;20;3580487;-37
2024/04/14 05:26:54;;;;;;;;;26.33;24.33;;;;;14.30;96.61;100036.72;6275304;20;3596147;-37
2024/04/14 05:29:22;;;;;;;;;21.50;19.00;;;;;15.02;95.22;100036.94;6273495;20;2837846;-38
2024/04/14 05:31:50;;;;;;;;;23.67;21.67;;;;;15.44;88.71;100049.06;6275383;20;2844156;-38
2024/04/14 05:34:18;;;;;;;;;25.00;25.00;;;;;15.09;93.19;100039.06;6304572;20;3589948;-39
2024/04/14 05:36:46;;;;;;;;;23.33;22.33;;;;;15.49;90.82;100041.47;6306512;20;3580490;-38
2024/04/14 05:39:14;;;;;;;;;25.33;22.67;;;;;15.65;89.09;100037.56;6269648;20;2844180;-37
2024/04/14 05:41:42;;;;;;;;;24.00;23.00;;;;;17.42;80.58;100035.09;6308708;20;3592011;-39
2024/04/14 05:44:10;;;;;;;;;21.67;21.00;;;;;17.99;74.64;100033.84;6274816;20;2834646;-39
2024/04/14 05:46:38;;;;;;;;;18.00;18.00;;;;;20.06;66.26;100038.59;6304934;20;2837771;-38
2024/04/14 05:49:05;;;;;;;;;21.00;21.00;;;;;21.99;57.58;100045.84;6275539;20;3563926;-38
2024/04/14 05:51:33;;;;;;;;;22.00;22.00;;;;;19.06;65.19;100035.16;6273867;20;3581559;-38
2024/04/14 05:54:00;;;;;;;;;16.00;16.00;;;;;19.78;64.77;100027.63;6272500;20;2715904;-38
2024/04/14 05:56:27;;;;;;;;;20.00;18.00;;;;;18.19;73.24;100008.50;6307382;20;3575249;-38
2024/04/14 05:58:55;;;;;;;;;20.67;20.33;;;;;18.72;71.31;100021.00;6305995;20;3580589;-39
2024/04/14 06:01:22;;;;;;;;;19.50;19.50;;;;;18.71;73.47;100013.84;6275569;20;2825340;-40
2024/04/14 06:03:50;;;;;;;;;18.00;18.00;;;;;18.23;77.60;100029.97;6277110;20;3575317;-39
2024/04/14 06:06:17;;;;;;;;;21.00;21.00;;;;;17.81;79.86;100021.84;6276939;20;3577347;-39
2024/04/14 06:08:45;;;;;;;;;35.00;28.00;;;;;18.48;76.93;100029.50;6274546;20;3600321;-41
2024/04/14 06:11:12;;;;;;;;;19.50;18.00;;;;;18.65;73.97;100028.84;6273298;20;2829486;-40
2024/04/14 06:13:39;;;;;;;;;9.00;9.00;;;;;18.34;76.32;100027.16;6274837;20;2757551;-39
2024/04/14 06:16:06;;;;;;;;;18.50;18.00;;;;;18.87;73.34;100026.94;6273763;20;2835706;-37
2024/04/14 06:18:34;;;;;;;;;20.67;19.33;;;;;18.92;72.68;100027.38;6274837;20;3566018;-39
2024/04/14 06:21:03;;;;;;;;;18.00;18.00;;;;;18.94;72.31;100019.94;6271416;20;2820084;-39
2024/04/14 06:23:29;;;;;;;;;16.50;15.00;;;;;19.59;70.73;100033.03;6276273;20;2492097;-38
2024/04/14 06:25:57;;;;;;;;;17.00;15.50;;;;;19.57;68.66;100027.75;6274321;20;2818040;-38
2024/04/14 06:28:23;;;;;;;;;15.00;15.00;;;;;19.78;67.98;100030.34;6275886;20;2500442;-44
2024/04/14 06:30:51;;;;;;;;;19.00;19.00;;;;;19.88;66.34;100025.75;6272001;20;2833693;-40
2024/04/14 06:33:19;;;;;;;;;20.00;18.00;;;;;20.04;66.03;100025.13;6274249;20;2829574;-39
2024/04/14 06:35:46;;;;;;;;;16.00;14.67;;;;;20.06;64.80;100030.44;6273245;20;3546124;-40
2024/04/14 06:38:14;;;;;;;;;17.00;17.00;;;;;20.11;67.08;100019.94;6274930;20;3555965;-39
2024/04/14 06:40:41;;;;;;;;;16.00;16.00;;;;;20.51;64.53;100021.50;6308418;20;3560678;-40
2024/04/14 06:43:08;;;;;;;;;15.00;15.00;;;;;20.37;64.21;100018.28;6307525;20;2483621;-38
2024/04/14 06:45:35;;;;;;;;;16.00;16.00;;;;;20.79;61.40;100026.00;6263534;20;2821108;-38
2024/04/14 06:48:03;;;;;;;;;14.67;13.00;;;;;;;;6275570;20;2487830;-41
2024/04/14 06:50:30;;;;;;;;;13.00;13.00;;;;;21.03;59.58;100021.84;6309047;20;2483652;-38
2024/04/14 06:52:59;;;;;;;;;15.00;15.00;;;;;21.21;59.33;100030.94;6305757;20;2487788;-38
2024/04/14 06:55:26;;;;;;;;;15.00;14.00;;;;;21.79;58.56;100026.03;6306737;20;2631649;-39
2024/04/14 06:57:54;;;;;;;;;15.00;12.00;;;;;21.48;57.78;100030.06;6301375;20;3518129;-39
2024/04/14 07:00:21;;;;;;;;;13.00;13.00;;;;;21.63;56.26;100033.06;6276649;20;3539822;-40
2024/04/14 07:02:48;;;;;;;;;12.67;11.67;;;;;22.06;56.53;100031.34;6309034;20;2483589;-39
2024/04/14 07:05:16;;;;;;;;;13.00;12.00;;;;;22.22;55.88;100032.53;6307073;20;2483654;-39
2024/04/14 07:07:43;;;;;;;;;13.67;11.67;;;;;22.52;53.53;100031.16;6307313;20;2483600;-39
2024/04/14 07:10:10;;;;;;;;;11.50;11.50;;;;;21.81;54.08;100021.28;6306142;20;3466020;-42
2024/04/14 07:12:41;;;;;;;;;13.67;13.33;;;;;21.95;54.36;100028.88;6306343;20;3533588;-40
2024/04/14 07:15:08;;;;;;;;;14.00;14.00;;;;;22.24;54.04;100035.97;6273356;20;2804668;-39
2024/04/14 07:17:36;;;;;;;;;14.00;13.00;;;;;22.56;53.45;100027.94;6273530;20;2787822;-42
2024/04/14 07:20:04;;;;;;;;;12.67;12.67;;;;;22.98;52.99;100035.31;6274055;20;3522489;-44
2024/04/14 07:22:31;;;;;;;;;13.33;13.33;;;;;23.23;53.19;100029.94;6310878;20;3529533;-43
2024/04/14 07:24:59;;;;;;;;;12.00;12.00;;;;;23.50;51.10;100039.72;6305490;20;3520135;-42
2024/04/14 07:27:27;;;;;;;;;11.33;11.33;;;;;23.63;51.20;100036.50;6306731;20;2483611;-42
2024/04/14 07:29:54;;;;;;;;;14.50;12.50;;;;;23.70;50.55;100034.78;6300962;20;2799307;-42
2024/04/14 07:32:22;;;;;;;;;11.00;11.00;;;;;24.26;50.29;100044.03;6269852;20;3515880;-45
2024/04/14 07:34:49;;;;;;;;;8.00;8.00;;;;;23.47;50.94;100028.25;6305565;20;2748167;-42
2024/04/14 07:37:17;;;;;;;;;10.33;10.33;;;;;23.25;51.47;100032.47;6306253;20;3494120;-42
2024/04/14 07:39:44;;;;;;;;;13.33;12.33;;;;;24.39;49.73;100039.88;6305410;20;2483650;-42
2024/04/14 07:42:11;;;;;;;;;13.67;11.33;;;;;23.66;49.82;100037.00;6307783;20;2483645;-43
2024/04/14 07:44:39;;;;;;;;;12.50;12.50;;;;;23.53;50.70;100041.28;6305807;20;2792055;-41
2024/04/14 07:47:06;;;;;;;;;13.67;12.67;;;;;23.65;50.42;100034.44;6271685;20;3522380;-44
2024/04/14 07:49:36;;;;;;;;;12.33;12.33;;;;;23.67;50.07;100032.34;6309153;20;2783522;-42
2024/04/14 07:52:04;;;;;;;;;18.67;15.33;;;;;24.41;48.97;100032.31;6307242;20;3558637;-41
2024/04/14 07:54:31;;;;;;;;;12.33;12.33;;;;;24.68;49.05;100036.56;6277354;20;3535006;-41
2024/04/14 07:57:00;;;;;;;;;10.00;10.00;;;;;24.69;49.06;100036.38;6271674;20;2483608;-41
2024/04/14 07:59:28;;;;;;;;;12.00;12.00;;;;;24.97;48.07;100031.28;6304298;20;2483648;-42
2024/04/14 08:01:55;;;;;;;;;12.00;12.00;;;;;24.58;48.89;100028.53;6305717;20;2487841;-41
2024/04/14 08:04:23;;;;;;;;;10.33;10.33;;;;;23.89;48.83;100028.13;6305081;20;3500294;-42
2024/04/14 08:06:50;;;;;;;;;11.00;11.00;;;;;24.07;49.05;100026.06;6307368;20;3501293;-42
2024/04/14 08:09:17;;;;;;;;;12.33;11.00;;;;;24.36;48.81;100023.78;6309987;20;2782608;-43
2024/04/14 08:11:46;;;;;;;;;16.00;16.00;;;;;24.67;48.26;100021.13;6307250;20;3557596;-42
2024/04/14 08:14:13;;;;;;;;;12.00;9.00;;;;;24.64;47.30;100019.56;6272008;20;3491992;-42
2024/04/14 08:16:41;;;;;;;;;11.33;11.33;;;;;25.04;47.23;100019.56;6300731;20;3508690;-41
2024/04/14 08:19:08;;;;;;;;;12.33;12.33;;;;;24.91;47.47;100021.03;6272518;20;2491923;-42
2024/04/14 08:21:36;;;;;;;;;17.00;15.33;;;;;24.72;48.83;100016.81;6302931;20;2483691;-41
2024/04/14 08:24:06;;;;;;;;;13.67;11.67;;;;;24.48;49.04;100014.16;6305300;20;3496158;-41
2024/04/14 08:26:34;;;;;;;;;11.00;11.00;;;;;24.40;49.12;100012.25;6305759;20;3525297;-43
2024/04/14 08:29:01;;;;;;;;;10.00;10.00;;;;;24.81;48.08;100014.88;6301134;20;3522326;-45
2024/04/14 08:31:28;;;;;;;;;14.67;13.33;;;;;25.60;47.03;100010.13;6308532;20;3531534;-40
2024/04/14 08:33:57;;;;;;;;;13.33;12.00;;;;;26.14;46.10;100005.53;6305504;20;3532610;-41
2024/04/14 08:36:24;;;;;;;;;13.33;12.00;;;;;25.52;46.24;99999.19;6302573;20;3507605;-41
2024/04/14 08:38:51;;;;;;;;;9.00;9.00;;;;;25.07;46.40;99997.25;6281305;20;2746117;-44
2024/04/14 08:41:19;;;;;;;;;10.33;10.33;;;;;25.17;46.34;99997.88;6302920;20;3509626;-42
2024/04/14 08:43:47;;;;;;;;;11.33;11.33;;;;;25.54;46.74;99994.38;6277208;20;2483740;-40
2024/04/14 08:46:16;;;;;;;;;14.67;14.67;;;;;25.86;45.76;99995.16;6308914;20;3536750;-43
2024/04/14 08:48:44;;;;;;;;;11.00;9.67;;;;;26.27;44.90;99989.22;6276994;20;3503454;-43
2024/04/14 08:51:14;;;;;;;;;11.00;11.00;;;;;26.21;44.81;99995.50;6282837;20;3508672;-43
2024/04/14 08:53:44;;;;;;;;;10.33;10.33;;;;;25.67;45.19;99993.72;6312072;20;2784775;-42
2024/04/14 08:56:12;;;;;;;;;16.33;15.67;;;;;26.47;44.05;99990.38;6311519;20;3552349;-42
2024/04/14 08:58:42;;;;;;;;;10.67;10.67;;;;;26.43;44.71;99991.78;6283306;20;2786723;-42
2024/04/14 09:01:11;;;;;;;;;11.00;11.00;;;;;26.60;44.25;99999.91;6309033;20;2483623;-41
2024/04/14 09:03:38;;;;;;;;;10.33;10.33;;;;;26.29;43.88;99992.66;6308619;20;3505481;-41
2024/04/14 09:06:06;;;;;;;;;9.67;9.67;;;;;26.55;44.22;99994.97;6319839;20;2765956;-42
2024/04/14 09:08:34;;;;;;;;;12.00;10.33;;;;;26.29;43.81;99992.66;6316221;20;2789918;-42
2024/04/14 09:11:01;;;;;;;;;12.00;12.00;;;;;26.06;44.50;99998.22;6311196;20;2790902;-42
2024/04/14 09:13:29;;;;;;;;;9.00;9.00;;;;;25.99;44.14;99989.03;6317334;20;2752411;-44
2024/04/14 09:15:58;;;;;;;;;10.00;10.00;;;;;26.10;44.50;99993.22;6306311;20;3509752;-42
2024/04/14 09:18:25;;;;;;;;;11.67;11.67;;;;;26.68;43.34;99991.56;6307578;20;3498213;-43
2024/04/14 09:20:53;;;;;;;;;10.00;10.00;;;;;26.90;43.54;100000.72;6316183;20;2775379;-43
2024/04/14 09:23:22;;;;;;;;;61.67;50.67;;;;;26.38;43.68;99982.41;6308534;20;3592992;-42
2024/04/14 09:25:50;;;;;;;;;12.00;12.00;;;;;27.02;42.87;99992.81;6306011;20;3516017;-40
2024/04/14 09:28:18;;;;;;;;;13.00;11.00;;;;;26.69;43.35;99993.25;6275090;20;3508739;-46
2024/04/14 09:30:45;;;;;;;;;10.00;10.00;;;;;26.68;43.65;99991.56;6309459;20;2483633;-40
2024/04/14 09:33:13;;;;;;;;;54.50;45.50;;;;;26.87;42.52;99987.34;6306694;20;2867103;-39
2024/04/14 09:35:41;;;;;;;;;10.33;10.00;;;;;27.11;42.64;99977.84;6275193;20;3513903;-42
2024/04/14 09:38:14;;;;;;;;;8.67;8.67;;;;;26.97;42.70;99978.78;6304135;20;3461720;-41
2024/04/14 09:40:43;;;;;;;;;10.67;9.33;;;;;27.11;41.94;99981.47;6309702;20;2483631;-46
2024/04/14 09:43:15;;;;;;;;;8.67;8.67;;;;;27.09;42.65;99985.47;6306515;20;3463966;-50
2024/04/14 09:45:43;;;;;;;;;12.00;12.00;;;;;26.74;42.50;99979.75;6309349;20;2483896;-48
2024/04/14 09:48:11;;;;;;;;;9.67;9.67;;;;;27.74;41.14;99987.22;6311910;20;2769027;-49
2024/04/14 09:50:44;;;;;;;;;10.33;10.33;;;;;27.71;41.33;99987.63;6313252;20;3514854;-50
2024/04/14 09:53:12;;;;;;;;;15.67;12.33;;;;;27.11;41.89;99975.94;6304099;20;2483633;-46
2024/04/14 09:55:41;;;;;;;;;9.67;9.67;;;;;27.17;41.58;99974.34;6305164;20;3486818;-51
2024/04/14 09:58:08;;;;;;;;;11.00;11.00;;;;;27.58;41.41;99979.22;6305003;20;3505576;-48
2024/04/14 10:00:38;;;;;;;;;12.33;11.00;;;;;27.63;40.79;99965.69;6274785;20;3495062;-51
2024/04/14 10:03:08;;;;;;;;;12.00;12.00;;;;;27.46;41.51;99958.72;6311847;20;3521303;-48
2024/04/14 10:05:38;;;;;;;;;10.00;10.00;;;;;27.91;41.11;99954.72;6306497;20;2664931;-53
2024/04/14 10:08:08;;;;;;;;;14.00;13.00;;;;;28.56;39.13;99962.78;6307587;20;3542163;-51
2024/04/14 10:10:35;;;;;;;;;12.00;12.00;;;;;28.34;40.30;99953.72;6310973;20;3526520;-51
2024/04/14 10:13:08;;;;;;;;;14.33;12.00;;;;;28.03;39.98;99952.25;6310594;20;2483616;-47
2024/04/14 10:15:38;;;;;;;;;11.33;11.00;;;;;27.85;39.20;99954.66;6310474;20;3522292;-48
2024/04/14 10:18:20;;;;;;;;;13.33;11.67;;;;;28.55;39.51;99945.34;6305840;20;3508635;-52
2024/04/14 10:20:48;;;;;;;;;10.00;10.00;;;;;28.45;39.74;99953.16;6307231;20;3504454;-48
2024/04/14 10:23:18;;;;;;;;;11.00;11.00;;;;;28.73;38.93;99955.00;6306672;20;3521551;-49
2024/04/14 10:25:48;;;;;;;;;14.00;11.00;;;;;29.19;38.35;99955.19;6274999;20;3511994;-50
2024/04/14 10:28:21;;;;;;;;;11.67;11.33;;;;;28.46;39.41;99952.09;6275317;20;3504594;-51
2024/04/14 10:31:00;;;;;;;;;10.33;10.33;;;;;27.81;39.84;99953.38;6307345;20;2483602;-52
2024/04/14 10:33:27;;;;;;;;;9.33;9.00;;;;;28.00;39.52;99945.22;6312351;20;2753629;-50
2024/04/14 10:36:06;;;;;;;;;15.00;11.00;;;;;28.52;40.09;99945.78;6306577;20;3523217;-48
2024/04/14 10:38:34;;;;;;;;;13.00;12.00;;;;;28.49;39.92;99935.13;6303267;20;3520222;-47
2024/04/14 10:41:02;;;;;;;;;12.00;12.00;;;;;28.43;38.11;99938.66;6305850;20;3518077;-49
2024/04/14 10:43:30;;;;;;;;;9.67;9.00;;;;;28.56;38.74;99932.41;6272292;20;3474247;-48
2024/04/14 10:46:01;;;;;;;;;8.00;8.00;;;;;28.58;38.37;99939.41;6303393;20;3460716;-47
2024/04/14 10:48:28;;;;;;;;;16.00;13.00;;;;;27.64;40.36;99926.00;6310926;20;3546320;-46
2024/04/14 10:50:55;;;;;;;;;11.00;11.00;;;;;28.06;40.20;99929.75;6309973;20;2772187;-42
2024/04/14 10:53:23;;;;;;;;;11.00;10.00;;;;;28.45;38.20;99931.91;6305801;20;3514863;-41
2024/04/14 10:55:50;;;;;;;;;10.00;9.67;;;;;28.94;37.03;99938.28;6272587;20;3492994;-42
2024/04/14 10:58:17;;;;;;;;;14.67;12.00;;;;;28.55;37.92;99930.69;6308774;20;3527374;-42